sensor_id;sensor_type;location;lat;lon;timestamp;P1;durP1;ratioP1;P2;durP2;ratioP2
66870;SDS011;53780;44.998;9.926;2022-07-29T00:01:27;8.98;;;5.80;;
66870;SDS011;53780;44.998;9.926;2022-07-29T00:04:31;11.00;;;6.20;;
66870;SDS011;53780;44.998;9.926;2022-07-29T00:07:37;10.43;;;5.80;;
66870;SDS011;53780;44.998;9.926;2022-07-29T00:10:41;9.00;;;5.70;;
66870;SDS011;53780;44.998;9.926;2022-07-29T00:13:46;9.13;;;5.17;;
66870;SDS011;53780;44.998;9.926;2022-07-29T00:16:49;9.20;;;5.15;;
66870;SDS011;53780;44.998;9.926;2022-07-29T00:19:53;7.25;;;4.60;;
66870;SDS011;53780;44.998;9.926;2022-07-29T00:22:57;8.85;;;4.57;;
66870;SDS011;53780;44.998;9.926;2022-07-29T00:26:01;8.98;;;4.65;;
66870;SDS011;53780;44.998;9.926;2022-07-29T00:29:05;6.83;;;4.77;;
66870;SDS011;53780;44.998;9.926;2022-07-29T00:32:08;10.95;;;5.43;;
66870;SDS011;53780;44.998;9.926;2022-07-29T00:35:12;9.20;;;5.18;;
66870;SDS011;53780;44.998;9.926;2022-07-29T00:38:34;7.80;;;4.90;;
66870;SDS011;53780;44.998;9.926;2022-07-29T00:41:38;9.63;;;5.50;;
66870;SDS011;53780;44.998;9.926;2022-07-29T00:44:45;9.47;;;5.60;;
66870;SDS011;53780;44.998;9.926;2022-07-29T00:47:49;8.35;;;5.45;;
66870;SDS011;53780;44.998;9.926;2022-07-29T00:50:53;9.18;;;5.28;;
66870;SDS011;53780;44.998;9.926;2022-07-29T00:53:57;8.68;;;4.82;;
66870;SDS011;53780;44.998;9.926;2022-07-29T00:57:01;8.82;;;4.68;;
66870;SDS011;53780;44.998;9.926;2022-07-29T01:00:06;9.27;;;5.17;;
66870;SDS011;53780;44.998;9.926;2022-07-29T01:03:12;9.70;;;5.38;;
66870;SDS011;53780;44.998;9.926;2022-07-29T01:06:16;8.85;;;4.68;;
66870;SDS011;53780;44.998;9.926;2022-07-29T01:09:21;9.18;;;5.15;;
66870;SDS011;53780;44.998;9.926;2022-07-29T01:12:26;8.52;;;5.50;;
66870;SDS011;53780;44.998;9.926;2022-07-29T01:15:32;8.23;;;5.57;;
66870;SDS011;53780;44.998;9.926;2022-07-29T01:18:42;8.40;;;5.80;;
66870;SDS011;53780;44.998;9.926;2022-07-29T01:25:02;10.85;;;6.47;;
66870;SDS011;53780;44.998;9.926;2022-07-29T01:38:22;9.43;;;4.93;;
66870;SDS011;53780;44.998;9.926;2022-07-29T01:41:29;7.82;;;5.07;;
66870;SDS011;53780;44.998;9.926;2022-07-29T01:44:37;8.40;;;4.60;;
66870;SDS011;53780;44.998;9.926;2022-07-29T01:51:31;8.15;;;4.85;;
66870;SDS011;53780;44.998;9.926;2022-07-29T01:54:39;7.72;;;4.68;;
66870;SDS011;53780;44.998;9.926;2022-07-29T01:57:47;8.10;;;5.03;;
66870;SDS011;53780;44.998;9.926;2022-07-29T02:00:52;8.85;;;4.70;;
66870;SDS011;53780;44.998;9.926;2022-07-29T02:03:59;8.33;;;4.50;;
66870;SDS011;53780;44.998;9.926;2022-07-29T02:07:06;9.00;;;5.15;;
66870;SDS011;53780;44.998;9.926;2022-07-29T02:10:13;8.30;;;5.20;;
66870;SDS011;53780;44.998;9.926;2022-07-29T02:13:18;10.52;;;5.30;;
66870;SDS011;53780;44.998;9.926;2022-07-29T02:16:25;10.00;;;5.35;;
66870;SDS011;53780;44.998;9.926;2022-07-29T02:19:32;9.70;;;5.63;;
66870;SDS011;53780;44.998;9.926;2022-07-29T02:22:37;9.90;;;6.03;;
66870;SDS011;53780;44.998;9.926;2022-07-29T02:25:42;9.93;;;5.45;;
66870;SDS011;53780;44.998;9.926;2022-07-29T02:28:47;10.20;;;5.60;;
66870;SDS011;53780;44.998;9.926;2022-07-29T02:31:53;9.32;;;5.63;;
66870;SDS011;53780;44.998;9.926;2022-07-29T02:35:00;10.67;;;6.10;;
66870;SDS011;53780;44.998;9.926;2022-07-29T02:38:05;13.20;;;6.88;;
66870;SDS011;53780;44.998;9.926;2022-07-29T02:41:43;11.30;;;5.93;;
66870;SDS011;53780;44.998;9.926;2022-07-29T02:44:49;9.98;;;6.15;;
66870;SDS011;53780;44.998;9.926;2022-07-29T02:47:53;10.63;;;6.72;;
66870;SDS011;53780;44.998;9.926;2022-07-29T02:51:05;11.80;;;7.00;;
66870;SDS011;53780;44.998;9.926;2022-07-29T02:54:33;9.98;;;6.68;;
66870;SDS011;53780;44.998;9.926;2022-07-29T03:01:23;13.50;;;7.90;;
66870;SDS011;53780;44.998;9.926;2022-07-29T03:04:28;13.48;;;8.35;;
66870;SDS011;53780;44.998;9.926;2022-07-29T03:07:35;16.73;;;9.37;;
66870;SDS011;53780;44.998;9.926;2022-07-29T03:10:42;15.75;;;9.40;;
66870;SDS011;53780;44.998;9.926;2022-07-29T03:13:47;16.13;;;9.77;;
66870;SDS011;53780;44.998;9.926;2022-07-29T03:16:51;16.45;;;10.38;;
66870;SDS011;53780;44.998;9.926;2022-07-29T03:19:56;16.75;;;10.40;;
66870;SDS011;53780;44.998;9.926;2022-07-29T03:23:01;17.03;;;10.57;;
66870;SDS011;53780;44.998;9.926;2022-07-29T03:26:04;17.60;;;11.23;;
66870;SDS011;53780;44.998;9.926;2022-07-29T03:29:08;16.55;;;10.95;;
66870;SDS011;53780;44.998;9.926;2022-07-29T03:32:12;17.65;;;10.77;;
66870;SDS011;53780;44.998;9.926;2022-07-29T03:35:16;16.90;;;11.52;;
66870;SDS011;53780;44.998;9.926;2022-07-29T03:38:20;19.30;;;11.97;;
66870;SDS011;53780;44.998;9.926;2022-07-29T03:41:28;21.88;;;13.48;;
66870;SDS011;53780;44.998;9.926;2022-07-29T03:44:32;20.30;;;13.00;;
66870;SDS011;53780;44.998;9.926;2022-07-29T03:47:38;20.75;;;13.18;;
66870;SDS011;53780;44.998;9.926;2022-07-29T03:50:46;19.60;;;13.10;;
66870;SDS011;53780;44.998;9.926;2022-07-29T03:53:51;20.97;;;13.30;;
66870;SDS011;53780;44.998;9.926;2022-07-29T03:56:55;23.60;;;12.55;;
66870;SDS011;53780;44.998;9.926;2022-07-29T04:00:05;20.60;;;11.90;;
66870;SDS011;53780;44.998;9.926;2022-07-29T04:03:09;20.58;;;13.32;;
66870;SDS011;53780;44.998;9.926;2022-07-29T04:06:13;21.35;;;14.00;;
66870;SDS011;53780;44.998;9.926;2022-07-29T04:09:18;20.03;;;12.30;;
66870;SDS011;53780;44.998;9.926;2022-07-29T04:12:21;19.83;;;12.57;;
66870;SDS011;53780;44.998;9.926;2022-07-29T04:15:25;20.05;;;12.30;;
66870;SDS011;53780;44.998;9.926;2022-07-29T04:18:32;22.70;;;14.85;;
66870;SDS011;53780;44.998;9.926;2022-07-29T04:21:39;26.80;;;16.92;;
66870;SDS011;53780;44.998;9.926;2022-07-29T04:24:43;24.87;;;16.87;;
66870;SDS011;53780;44.998;9.926;2022-07-29T04:27:47;29.92;;;18.38;;
66870;SDS011;53780;44.998;9.926;2022-07-29T04:31:06;27.00;;;17.13;;
66870;SDS011;53780;44.998;9.926;2022-07-29T04:34:10;32.22;;;17.40;;
66870;SDS011;53780;44.998;9.926;2022-07-29T04:37:15;28.27;;;17.27;;
66870;SDS011;53780;44.998;9.926;2022-07-29T04:40:19;29.70;;;17.53;;
66870;SDS011;53780;44.998;9.926;2022-07-29T04:43:23;30.98;;;18.67;;
66870;SDS011;53780;44.998;9.926;2022-07-29T04:46:27;28.45;;;17.45;;
66870;SDS011;53780;44.998;9.926;2022-07-29T04:49:32;31.10;;;17.67;;
66870;SDS011;53780;44.998;9.926;2022-07-29T04:52:36;29.95;;;18.30;;
66870;SDS011;53780;44.998;9.926;2022-07-29T04:55:40;27.10;;;17.37;;
66870;SDS011;53780;44.998;9.926;2022-07-29T04:58:44;31.73;;;18.58;;
66870;SDS011;53780;44.998;9.926;2022-07-29T05:01:49;30.77;;;18.73;;
66870;SDS011;53780;44.998;9.926;2022-07-29T05:04:53;30.30;;;18.77;;
66870;SDS011;53780;44.998;9.926;2022-07-29T05:07:56;30.23;;;18.48;;
66870;SDS011;53780;44.998;9.926;2022-07-29T05:11:01;31.37;;;18.70;;
66870;SDS011;53780;44.998;9.926;2022-07-29T05:14:05;33.05;;;19.48;;
66870;SDS011;53780;44.998;9.926;2022-07-29T05:17:09;29.95;;;19.08;;
66870;SDS011;53780;44.998;9.926;2022-07-29T05:20:12;36.30;;;19.50;;
66870;SDS011;53780;44.998;9.926;2022-07-29T05:23:16;31.73;;;18.63;;
66870;SDS011;53780;44.998;9.926;2022-07-29T05:26:21;29.53;;;18.37;;
66870;SDS011;53780;44.998;9.926;2022-07-29T05:29:24;28.65;;;18.00;;
66870;SDS011;53780;44.998;9.926;2022-07-29T05:32:29;29.10;;;17.23;;
66870;SDS011;53780;44.998;9.926;2022-07-29T05:35:33;27.77;;;16.25;;
66870;SDS011;53780;44.998;9.926;2022-07-29T05:38:38;26.67;;;15.63;;
66870;SDS011;53780;44.998;9.926;2022-07-29T05:41:42;26.97;;;15.60;;
66870;SDS011;53780;44.998;9.926;2022-07-29T05:44:46;24.65;;;14.55;;
66870;SDS011;53780;44.998;9.926;2022-07-29T05:47:50;29.65;;;14.75;;
66870;SDS011;53780;44.998;9.926;2022-07-29T05:50:54;23.90;;;13.63;;
66870;SDS011;53780;44.998;9.926;2022-07-29T05:53:58;22.45;;;13.68;;
66870;SDS011;53780;44.998;9.926;2022-07-29T05:57:02;19.10;;;12.87;;
66870;SDS011;53780;44.998;9.926;2022-07-29T06:00:06;18.40;;;12.60;;
66870;SDS011;53780;44.998;9.926;2022-07-29T06:03:20;18.63;;;12.43;;
66870;SDS011;53780;44.998;9.926;2022-07-29T06:06:24;19.92;;;12.20;;
66870;SDS011;53780;44.998;9.926;2022-07-29T06:09:27;23.67;;;12.88;;
66870;SDS011;53780;44.998;9.926;2022-07-29T06:12:31;20.00;;;12.50;;
66870;SDS011;53780;44.998;9.926;2022-07-29T06:15:35;18.88;;;11.70;;
66870;SDS011;53780;44.998;9.926;2022-07-29T06:18:39;17.00;;;11.27;;
66870;SDS011;53780;44.998;9.926;2022-07-29T06:21:43;16.30;;;10.88;;
66870;SDS011;53780;44.998;9.926;2022-07-29T06:24:47;15.55;;;10.15;;
66870;SDS011;53780;44.998;9.926;2022-07-29T06:27:51;17.77;;;9.93;;
66870;SDS011;53780;44.998;9.926;2022-07-29T06:30:55;17.20;;;11.32;;
66870;SDS011;53780;44.998;9.926;2022-07-29T06:33:59;20.77;;;12.80;;
66870;SDS011;53780;44.998;9.926;2022-07-29T06:37:07;21.25;;;13.00;;
66870;SDS011;53780;44.998;9.926;2022-07-29T06:40:12;16.90;;;11.75;;
66870;SDS011;53780;44.998;9.926;2022-07-29T06:43:38;19.07;;;11.13;;
66870;SDS011;53780;44.998;9.926;2022-07-29T06:46:44;19.05;;;11.70;;
66870;SDS011;53780;44.998;9.926;2022-07-29T06:49:52;17.55;;;10.77;;
66870;SDS011;53780;44.998;9.926;2022-07-29T06:52:56;17.83;;;10.48;;
66870;SDS011;53780;44.998;9.926;2022-07-29T06:56:00;17.48;;;10.80;;
66870;SDS011;53780;44.998;9.926;2022-07-29T06:59:05;17.60;;;11.70;;
66870;SDS011;53780;44.998;9.926;2022-07-29T07:02:16;16.42;;;9.57;;
66870;SDS011;53780;44.998;9.926;2022-07-29T07:05:20;17.58;;;10.05;;
66870;SDS011;53780;44.998;9.926;2022-07-29T07:08:23;15.90;;;10.63;;
66870;SDS011;53780;44.998;9.926;2022-07-29T07:11:28;16.80;;;9.52;;
66870;SDS011;53780;44.998;9.926;2022-07-29T07:14:32;17.93;;;10.07;;
66870;SDS011;53780;44.998;9.926;2022-07-29T07:17:35;15.27;;;10.52;;
66870;SDS011;53780;44.998;9.926;2022-07-29T07:20:40;15.65;;;9.60;;
66870;SDS011;53780;44.998;9.926;2022-07-29T07:23:45;14.73;;;9.40;;
66870;SDS011;53780;44.998;9.926;2022-07-29T07:26:49;15.20;;;9.70;;
66870;SDS011;53780;44.998;9.926;2022-07-29T07:29:54;15.40;;;10.07;;
66870;SDS011;53780;44.998;9.926;2022-07-29T07:32:59;15.27;;;9.75;;
66870;SDS011;53780;44.998;9.926;2022-07-29T07:36:03;15.15;;;10.15;;
66870;SDS011;53780;44.998;9.926;2022-07-29T07:39:08;16.30;;;10.75;;
66870;SDS011;53780;44.998;9.926;2022-07-29T07:42:11;16.98;;;10.25;;
66870;SDS011;53780;44.998;9.926;2022-07-29T07:45:16;14.43;;;9.73;;
66870;SDS011;53780;44.998;9.926;2022-07-29T07:48:21;16.30;;;9.55;;
66870;SDS011;53780;44.998;9.926;2022-07-29T07:51:24;16.88;;;10.15;;
66870;SDS011;53780;44.998;9.926;2022-07-29T07:54:28;14.75;;;9.43;;
66870;SDS011;53780;44.998;9.926;2022-07-29T07:57:32;15.30;;;9.27;;
66870;SDS011;53780;44.998;9.926;2022-07-29T08:00:35;14.67;;;8.97;;
66870;SDS011;53780;44.998;9.926;2022-07-29T08:03:39;12.40;;;8.02;;
66870;SDS011;53780;44.998;9.926;2022-07-29T08:06:43;15.95;;;8.80;;
66870;SDS011;53780;44.998;9.926;2022-07-29T08:09:47;16.38;;;10.27;;
66870;SDS011;53780;44.998;9.926;2022-07-29T08:12:50;13.45;;;8.15;;
66870;SDS011;53780;44.998;9.926;2022-07-29T08:15:54;15.87;;;9.20;;
66870;SDS011;53780;44.998;9.926;2022-07-29T08:19:03;13.40;;;8.50;;
66870;SDS011;53780;44.998;9.926;2022-07-29T08:22:07;12.43;;;8.00;;
66870;SDS011;53780;44.998;9.926;2022-07-29T08:25:11;12.98;;;7.55;;
66870;SDS011;53780;44.998;9.926;2022-07-29T08:28:15;11.30;;;7.80;;
66870;SDS011;53780;44.998;9.926;2022-07-29T08:31:19;12.10;;;8.17;;
66870;SDS011;53780;44.998;9.926;2022-07-29T08:34:22;14.18;;;8.90;;
66870;SDS011;53780;44.998;9.926;2022-07-29T08:37:26;12.70;;;7.75;;
66870;SDS011;53780;44.998;9.926;2022-07-29T08:40:30;11.23;;;7.75;;
66870;SDS011;53780;44.998;9.926;2022-07-29T08:43:34;10.95;;;7.15;;
66870;SDS011;53780;44.998;9.926;2022-07-29T08:46:40;13.20;;;8.97;;
66870;SDS011;53780;44.998;9.926;2022-07-29T08:49:45;13.10;;;7.43;;
66870;SDS011;53780;44.998;9.926;2022-07-29T08:52:50;12.05;;;7.72;;
66870;SDS011;53780;44.998;9.926;2022-07-29T08:55:55;11.55;;;7.10;;
66870;SDS011;53780;44.998;9.926;2022-07-29T08:58:59;10.52;;;6.97;;
66870;SDS011;53780;44.998;9.926;2022-07-29T09:02:11;10.77;;;6.00;;
66870;SDS011;53780;44.998;9.926;2022-07-29T09:05:22;12.80;;;7.50;;
66870;SDS011;53780;44.998;9.926;2022-07-29T09:08:27;12.75;;;7.70;;
66870;SDS011;53780;44.998;9.926;2022-07-29T09:11:32;12.90;;;7.85;;
66870;SDS011;53780;44.998;9.926;2022-07-29T09:14:36;11.88;;;7.10;;
66870;SDS011;53780;44.998;9.926;2022-07-29T09:20:52;10.57;;;6.53;;
66870;SDS011;53780;44.998;9.926;2022-07-29T09:24:14;13.25;;;6.43;;
66870;SDS011;53780;44.998;9.926;2022-07-29T09:27:25;9.45;;;5.90;;
66870;SDS011;53780;44.998;9.926;2022-07-29T09:30:30;11.52;;;5.82;;
66870;SDS011;53780;44.998;9.926;2022-07-29T09:33:33;10.63;;;6.37;;
66870;SDS011;53780;44.998;9.926;2022-07-29T09:36:39;9.13;;;4.78;;
66870;SDS011;53780;44.998;9.926;2022-07-29T09:39:52;7.80;;;5.03;;
66870;SDS011;53780;44.998;9.926;2022-07-29T09:42:55;8.95;;;5.00;;
66870;SDS011;53780;44.998;9.926;2022-07-29T09:46:12;7.75;;;4.70;;
66870;SDS011;53780;44.998;9.926;2022-07-29T09:49:17;9.13;;;5.07;;
66870;SDS011;53780;44.998;9.926;2022-07-29T09:52:21;9.05;;;6.18;;
66870;SDS011;53780;44.998;9.926;2022-07-29T09:55:25;9.75;;;5.15;;
66870;SDS011;53780;44.998;9.926;2022-07-29T09:58:28;9.40;;;5.47;;
66870;SDS011;53780;44.998;9.926;2022-07-29T10:01:32;7.78;;;5.32;;
66870;SDS011;53780;44.998;9.926;2022-07-29T10:04:40;8.03;;;4.83;;
66870;SDS011;53780;44.998;9.926;2022-07-29T10:11:02;8.95;;;5.72;;
66870;SDS011;53780;44.998;9.926;2022-07-29T10:14:13;9.43;;;5.88;;
66870;SDS011;53780;44.998;9.926;2022-07-29T10:17:18;8.85;;;5.13;;
66870;SDS011;53780;44.998;9.926;2022-07-29T10:20:22;8.07;;;4.90;;
66870;SDS011;53780;44.998;9.926;2022-07-29T10:23:27;11.88;;;6.80;;
66870;SDS011;53780;44.998;9.926;2022-07-29T10:26:32;12.18;;;6.30;;
66870;SDS011;53780;44.998;9.926;2022-07-29T10:29:37;9.57;;;5.35;;
66870;SDS011;53780;44.998;9.926;2022-07-29T10:40:10;9.70;;;6.13;;
66870;SDS011;53780;44.998;9.926;2022-07-29T10:44:05;9.02;;;5.40;;
66870;SDS011;53780;44.998;9.926;2022-07-29T10:47:23;8.95;;;5.28;;
66870;SDS011;53780;44.998;9.926;2022-07-29T10:50:28;9.98;;;5.65;;
66870;SDS011;53780;44.998;9.926;2022-07-29T10:54:07;10.00;;;5.63;;
66870;SDS011;53780;44.998;9.926;2022-07-29T10:57:12;11.95;;;6.20;;
66870;SDS011;53780;44.998;9.926;2022-07-29T11:00:26;9.50;;;5.30;;
66870;SDS011;53780;44.998;9.926;2022-07-29T11:23:37;11.00;;;6.15;;
66870;SDS011;53780;44.998;9.926;2022-07-29T11:26:43;9.37;;;5.23;;
66870;SDS011;53780;44.998;9.926;2022-07-29T11:29:54;8.63;;;5.50;;
66870;SDS011;53780;44.998;9.926;2022-07-29T11:32:59;11.13;;;5.80;;
66870;SDS011;53780;44.998;9.926;2022-07-29T11:36:07;9.30;;;5.20;;
66870;SDS011;53780;44.998;9.926;2022-07-29T11:39:27;9.05;;;5.07;;
66870;SDS011;53780;44.998;9.926;2022-07-29T11:45:46;7.25;;;4.80;;
66870;SDS011;53780;44.998;9.926;2022-07-29T11:48:51;8.43;;;5.50;;
66870;SDS011;53780;44.998;9.926;2022-07-29T11:51:56;8.77;;;5.70;;
66870;SDS011;53780;44.998;9.926;2022-07-29T11:55:01;9.68;;;6.20;;
66870;SDS011;53780;44.998;9.926;2022-07-29T11:58:07;10.13;;;5.57;;
66870;SDS011;53780;44.998;9.926;2022-07-29T12:01:15;7.68;;;4.80;;
66870;SDS011;53780;44.998;9.926;2022-07-29T12:04:22;8.05;;;5.07;;
66870;SDS011;53780;44.998;9.926;2022-07-29T12:07:30;8.73;;;4.57;;
66870;SDS011;53780;44.998;9.926;2022-07-29T12:10:35;10.15;;;4.93;;
66870;SDS011;53780;44.998;9.926;2022-07-29T12:13:39;9.10;;;5.40;;
66870;SDS011;53780;44.998;9.926;2022-07-29T12:16:43;8.90;;;5.57;;
66870;SDS011;53780;44.998;9.926;2022-07-29T12:19:47;9.52;;;4.90;;
66870;SDS011;53780;44.998;9.926;2022-07-29T12:22:50;12.05;;;5.40;;
66870;SDS011;53780;44.998;9.926;2022-07-29T12:25:57;9.73;;;5.50;;
66870;SDS011;53780;44.998;9.926;2022-07-29T12:29:02;9.87;;;5.37;;
66870;SDS011;53780;44.998;9.926;2022-07-29T12:32:06;10.13;;;5.20;;
66870;SDS011;53780;44.998;9.926;2022-07-29T12:35:11;9.10;;;5.72;;
66870;SDS011;53780;44.998;9.926;2022-07-29T12:38:21;11.65;;;6.00;;
66870;SDS011;53780;44.998;9.926;2022-07-29T12:41:27;8.48;;;5.50;;
66870;SDS011;53780;44.998;9.926;2022-07-29T12:44:47;25.43;;;8.13;;
66870;SDS011;53780;44.998;9.926;2022-07-29T12:47:52;43.65;;;12.20;;
66870;SDS011;53780;44.998;9.926;2022-07-29T12:51:00;12.77;;;6.15;;
66870;SDS011;53780;44.998;9.926;2022-07-29T12:54:06;9.50;;;5.13;;
66870;SDS011;53780;44.998;9.926;2022-07-29T12:57:15;9.88;;;5.60;;
66870;SDS011;53780;44.998;9.926;2022-07-29T13:00:22;9.03;;;5.00;;
66870;SDS011;53780;44.998;9.926;2022-07-29T13:03:26;8.13;;;4.90;;
66870;SDS011;53780;44.998;9.926;2022-07-29T13:06:43;11.15;;;5.07;;
66870;SDS011;53780;44.998;9.926;2022-07-29T13:09:48;11.93;;;5.50;;
66870;SDS011;53780;44.998;9.926;2022-07-29T13:13:03;7.45;;;4.65;;
66870;SDS011;53780;44.998;9.926;2022-07-29T13:16:18;8.57;;;5.47;;
66870;SDS011;53780;44.998;9.926;2022-07-29T13:19:31;10.35;;;5.72;;
66870;SDS011;53780;44.998;9.926;2022-07-29T13:22:47;10.95;;;5.60;;
66870;SDS011;53780;44.998;9.926;2022-07-29T13:25:51;9.35;;;5.07;;
66870;SDS011;53780;44.998;9.926;2022-07-29T13:28:55;8.98;;;5.00;;
66870;SDS011;53780;44.998;9.926;2022-07-29T13:31:59;10.30;;;5.27;;
66870;SDS011;53780;44.998;9.926;2022-07-29T13:35:04;8.45;;;5.30;;
66870;SDS011;53780;44.998;9.926;2022-07-29T13:38:10;10.63;;;4.97;;
66870;SDS011;53780;44.998;9.926;2022-07-29T13:41:15;9.50;;;5.35;;
66870;SDS011;53780;44.998;9.926;2022-07-29T13:44:18;10.38;;;5.40;;
66870;SDS011;53780;44.998;9.926;2022-07-29T13:47:22;7.80;;;5.00;;
66870;SDS011;53780;44.998;9.926;2022-07-29T13:50:27;7.68;;;5.05;;
66870;SDS011;53780;44.998;9.926;2022-07-29T13:53:30;11.48;;;5.60;;
66870;SDS011;53780;44.998;9.926;2022-07-29T13:56:34;9.95;;;5.75;;
66870;SDS011;53780;44.998;9.926;2022-07-29T13:59:39;10.77;;;6.60;;
66870;SDS011;53780;44.998;9.926;2022-07-29T14:02:45;10.17;;;6.30;;
66870;SDS011;53780;44.998;9.926;2022-07-29T14:05:49;8.40;;;6.25;;
66870;SDS011;53780;44.998;9.926;2022-07-29T14:08:53;12.38;;;6.13;;
66870;SDS011;53780;44.998;9.926;2022-07-29T14:11:57;12.35;;;7.10;;
66870;SDS011;53780;44.998;9.926;2022-07-29T14:15:00;13.32;;;6.15;;
66870;SDS011;53780;44.998;9.926;2022-07-29T14:18:04;13.50;;;5.20;;
66870;SDS011;53780;44.998;9.926;2022-07-29T14:21:08;10.13;;;5.15;;
66870;SDS011;53780;44.998;9.926;2022-07-29T14:24:12;13.15;;;5.25;;
66870;SDS011;53780;44.998;9.926;2022-07-29T14:27:16;16.95;;;5.88;;
66870;SDS011;53780;44.998;9.926;2022-07-29T14:30:20;19.50;;;5.88;;
66870;SDS011;53780;44.998;9.926;2022-07-29T14:33:24;22.17;;;6.10;;
66870;SDS011;53780;44.998;9.926;2022-07-29T14:36:28;14.70;;;5.32;;
66870;SDS011;53780;44.998;9.926;2022-07-29T14:39:34;11.05;;;4.20;;
66870;SDS011;53780;44.998;9.926;2022-07-29T14:42:39;11.55;;;4.43;;
66870;SDS011;53780;44.998;9.926;2022-07-29T14:45:43;10.38;;;4.20;;
66870;SDS011;53780;44.998;9.926;2022-07-29T14:48:48;10.73;;;4.17;;
66870;SDS011;53780;44.998;9.926;2022-07-29T14:51:51;13.30;;;4.75;;
66870;SDS011;53780;44.998;9.926;2022-07-29T14:54:55;8.73;;;4.30;;
66870;SDS011;53780;44.998;9.926;2022-07-29T14:57:59;9.02;;;3.80;;
66870;SDS011;53780;44.998;9.926;2022-07-29T15:01:03;8.80;;;4.40;;
66870;SDS011;53780;44.998;9.926;2022-07-29T15:04:07;9.40;;;4.60;;
66870;SDS011;53780;44.998;9.926;2022-07-29T15:07:11;13.15;;;4.93;;
66870;SDS011;53780;44.998;9.926;2022-07-29T15:10:15;12.68;;;5.10;;
66870;SDS011;53780;44.998;9.926;2022-07-29T15:13:18;9.27;;;4.55;;
66870;SDS011;53780;44.998;9.926;2022-07-29T15:16:22;9.45;;;5.10;;
66870;SDS011;53780;44.998;9.926;2022-07-29T15:19:27;9.37;;;5.00;;
66870;SDS011;53780;44.998;9.926;2022-07-29T15:22:31;9.77;;;5.18;;
66870;SDS011;53780;44.998;9.926;2022-07-29T15:25:35;9.30;;;5.00;;
66870;SDS011;53780;44.998;9.926;2022-07-29T15:28:39;9.75;;;5.20;;
66870;SDS011;53780;44.998;9.926;2022-07-29T15:31:43;13.43;;;5.25;;
66870;SDS011;53780;44.998;9.926;2022-07-29T15:34:48;14.73;;;6.40;;
66870;SDS011;53780;44.998;9.926;2022-07-29T15:37:52;17.17;;;7.30;;
66870;SDS011;53780;44.998;9.926;2022-07-29T15:40:56;13.68;;;6.90;;
66870;SDS011;53780;44.998;9.926;2022-07-29T15:44:00;12.23;;;7.60;;
66870;SDS011;53780;44.998;9.926;2022-07-29T15:47:05;13.50;;;7.32;;
66870;SDS011;53780;44.998;9.926;2022-07-29T15:50:12;14.47;;;7.40;;
66870;SDS011;53780;44.998;9.926;2022-07-29T15:53:19;14.30;;;7.60;;
66870;SDS011;53780;44.998;9.926;2022-07-29T15:56:23;14.43;;;7.80;;
66870;SDS011;53780;44.998;9.926;2022-07-29T15:59:27;11.55;;;6.85;;
66870;SDS011;53780;44.998;9.926;2022-07-29T16:02:31;9.90;;;6.32;;
66870;SDS011;53780;44.998;9.926;2022-07-29T16:05:35;11.37;;;7.27;;
66870;SDS011;53780;44.998;9.926;2022-07-29T16:08:39;14.82;;;8.25;;
66870;SDS011;53780;44.998;9.926;2022-07-29T16:11:43;13.88;;;8.45;;
66870;SDS011;53780;44.998;9.926;2022-07-29T16:14:53;13.75;;;7.50;;
66870;SDS011;53780;44.998;9.926;2022-07-29T16:17:57;11.65;;;6.18;;
66870;SDS011;53780;44.998;9.926;2022-07-29T16:21:00;9.63;;;5.73;;
66870;SDS011;53780;44.998;9.926;2022-07-29T16:24:05;11.13;;;5.70;;
66870;SDS011;53780;44.998;9.926;2022-07-29T16:27:09;9.90;;;5.50;;
66870;SDS011;53780;44.998;9.926;2022-07-29T16:30:14;12.52;;;5.68;;
66870;SDS011;53780;44.998;9.926;2022-07-29T16:33:18;10.35;;;6.47;;
66870;SDS011;53780;44.998;9.926;2022-07-29T16:36:21;12.67;;;6.40;;
66870;SDS011;53780;44.998;9.926;2022-07-29T16:39:26;10.73;;;6.30;;
66870;SDS011;53780;44.998;9.926;2022-07-29T16:42:30;11.30;;;6.60;;
66870;SDS011;53780;44.998;9.926;2022-07-29T16:45:34;11.43;;;6.50;;
66870;SDS011;53780;44.998;9.926;2022-07-29T16:48:38;11.32;;;6.57;;
66870;SDS011;53780;44.998;9.926;2022-07-29T16:51:42;11.23;;;6.93;;
66870;SDS011;53780;44.998;9.926;2022-07-29T16:54:47;10.57;;;6.57;;
66870;SDS011;53780;44.998;9.926;2022-07-29T16:57:51;10.88;;;7.00;;
66870;SDS011;53780;44.998;9.926;2022-07-29T17:00:57;10.18;;;6.20;;
66870;SDS011;53780;44.998;9.926;2022-07-29T17:04:01;10.73;;;7.22;;
66870;SDS011;53780;44.998;9.926;2022-07-29T17:07:08;13.50;;;7.07;;
66870;SDS011;53780;44.998;9.926;2022-07-29T17:10:11;11.20;;;7.55;;
66870;SDS011;53780;44.998;9.926;2022-07-29T17:13:15;11.27;;;7.60;;
66870;SDS011;53780;44.998;9.926;2022-07-29T17:16:19;11.48;;;7.63;;
66870;SDS011;53780;44.998;9.926;2022-07-29T17:19:31;11.50;;;7.20;;
66870;SDS011;53780;44.998;9.926;2022-07-29T17:22:37;12.67;;;7.20;;
66870;SDS011;53780;44.998;9.926;2022-07-29T17:25:42;11.48;;;6.97;;
66870;SDS011;53780;44.998;9.926;2022-07-29T17:28:47;10.82;;;6.70;;
66870;SDS011;53780;44.998;9.926;2022-07-29T17:31:51;13.05;;;7.35;;
66870;SDS011;53780;44.998;9.926;2022-07-29T17:34:55;12.70;;;7.95;;
66870;SDS011;53780;44.998;9.926;2022-07-29T17:38:00;14.07;;;9.40;;
66870;SDS011;53780;44.998;9.926;2022-07-29T17:41:04;15.43;;;10.07;;
66870;SDS011;53780;44.998;9.926;2022-07-29T17:44:08;14.43;;;9.30;;
66870;SDS011;53780;44.998;9.926;2022-07-29T17:47:11;14.18;;;8.60;;
66870;SDS011;53780;44.998;9.926;2022-07-29T17:50:15;12.95;;;8.10;;
66870;SDS011;53780;44.998;9.926;2022-07-29T17:53:19;12.80;;;7.80;;
66870;SDS011;53780;44.998;9.926;2022-07-29T17:56:23;15.38;;;8.00;;
66870;SDS011;53780;44.998;9.926;2022-07-29T17:59:27;14.82;;;9.20;;
66870;SDS011;53780;44.998;9.926;2022-07-29T18:02:31;14.18;;;8.48;;
66870;SDS011;53780;44.998;9.926;2022-07-29T18:05:35;14.02;;;8.60;;
66870;SDS011;53780;44.998;9.926;2022-07-29T18:08:39;15.53;;;8.40;;
66870;SDS011;53780;44.998;9.926;2022-07-29T18:11:43;15.00;;;8.50;;
66870;SDS011;53780;44.998;9.926;2022-07-29T18:14:48;13.75;;;8.50;;
66870;SDS011;53780;44.998;9.926;2022-07-29T18:17:52;13.18;;;7.90;;
66870;SDS011;53780;44.998;9.926;2022-07-29T18:20:56;13.57;;;8.30;;
66870;SDS011;53780;44.998;9.926;2022-07-29T18:24:02;14.97;;;8.20;;
66870;SDS011;53780;44.998;9.926;2022-07-29T18:27:06;14.23;;;8.55;;
66870;SDS011;53780;44.998;9.926;2022-07-29T18:30:10;13.98;;;8.23;;
66870;SDS011;53780;44.998;9.926;2022-07-29T18:33:15;15.43;;;9.13;;
66870;SDS011;53780;44.998;9.926;2022-07-29T18:36:22;15.05;;;8.88;;
66870;SDS011;53780;44.998;9.926;2022-07-29T18:39:26;13.63;;;8.70;;
66870;SDS011;53780;44.998;9.926;2022-07-29T18:42:29;13.95;;;8.77;;
66870;SDS011;53780;44.998;9.926;2022-07-29T18:45:34;16.13;;;8.40;;
66870;SDS011;53780;44.998;9.926;2022-07-29T18:48:38;16.80;;;8.88;;
66870;SDS011;53780;44.998;9.926;2022-07-29T18:51:42;16.35;;;9.25;;
66870;SDS011;53780;44.998;9.926;2022-07-29T18:54:46;15.17;;;9.17;;
66870;SDS011;53780;44.998;9.926;2022-07-29T18:57:49;18.48;;;9.70;;
66870;SDS011;53780;44.998;9.926;2022-07-29T19:00:54;17.90;;;10.23;;
66870;SDS011;53780;44.998;9.926;2022-07-29T19:03:57;19.98;;;9.65;;
66870;SDS011;53780;44.998;9.926;2022-07-29T19:07:03;16.00;;;9.23;;
66870;SDS011;53780;44.998;9.926;2022-07-29T19:10:07;15.17;;;9.47;;
66870;SDS011;53780;44.998;9.926;2022-07-29T19:13:11;14.48;;;9.20;;
66870;SDS011;53780;44.998;9.926;2022-07-29T19:16:15;15.32;;;8.88;;
66870;SDS011;53780;44.998;9.926;2022-07-29T19:19:20;12.95;;;8.10;;
66870;SDS011;53780;44.998;9.926;2022-07-29T19:22:26;14.48;;;8.93;;